This is the latest recevied weather packets stored in our database for station/object KE5VT. If no packets are shown the sender has not sent any weather packets the latest 10 day(s).
| Time | Temp. | Humidity | Pressure | Rain* | Wind** | Luminosity | Snow |
|---|---|---|---|---|---|---|---|
| 1787508097 | 32.22° C | 46% | 1011.2 hPa | 0 mm | - | 682 W/m² | - |
| 1787507793 | 32.22° C | 44% | 1011.3 hPa | 0 mm | - | 681 W/m² | - |
| 1787507488 | 32.78° C | 45% | 1011.3 hPa | 0 mm | - | 684 W/m² | - |
| 1787507183 | 31.11° C | 46% | 1011.2 hPa | 0 mm | - | 687 W/m² | - |
| 1787506879 | 31.11° C | 48% | 1011.4 hPa | 0 mm | - | 684 W/m² | - |
| 1787506575 | 31.67° C | 46% | 1011.5 hPa | 0 mm | - | 687 W/m² | - |
| 1787506271 | 32.22° C | 44% | 1011.4 hPa | 0 mm | - | 684 W/m² | - |
| 1787505966 | 31.11° C | 47% | 1011.5 hPa | 0 mm | - | 682 W/m² | - |
| 1787505661 | 30° C | 49% | 1011.4 hPa | 0 mm | - | 683 W/m² | - |
| 1787505356 | 31.11° C | 49% | 1011.6 hPa | 0 mm | - | 685 W/m² | - |
| 1787505051 | 31.11° C | 48% | 1011.6 hPa | 0 mm | - | 690 W/m² | - |
| 1787504746 | 31.11° C | 47% | 1011.6 hPa | 0 mm | - | 688 W/m² | - |
| 1787504443 | 31.11° C | 50% | 1011.7 hPa | 0 mm | - | 684 W/m² | - |
| 1787504138 | 30.56° C | 50% | 1011.6 hPa | 0 mm | - | 685 W/m² | - |
| 1787503833 | 31.11° C | 50% | 1011.8 hPa | 0 mm | - | 677 W/m² | - |
| 1787503528 | 31.11° C | 50% | 1012 hPa | 0 mm | - | 673 W/m² | - |
| 1787503225 | 30.56° C | 52% | 1012 hPa | 0 mm | - | 668 W/m² | - |
| 1787502920 | 31.11° C | 49% | 1012.1 hPa | 0 mm | - | 664 W/m² | - |
| 1787502616 | 31.11° C | 51% | 1011.9 hPa | 0 mm | - | 661 W/m² | - |
| 1787502315 | 30° C | 55% | 1012.2 hPa | 0 mm | - | 658 W/m² | - |
| 1787502011 | 30.56° C | 53% | 1012.1 hPa | 0 mm | - | 653 W/m² | - |
| 1787501707 | 29.44° C | 55% | 1012.1 hPa | 0 mm | - | 647 W/m² | - |
| 1787501402 | 29.44° C | 54% | 1012.4 hPa | 0 mm | - | 639 W/m² | - |
| 1787501099 | 29.44° C | 54% | 1012.4 hPa | 0 mm | - | 632 W/m² | - |
| 1787500794 | 30° C | 55% | 1012.4 hPa | 0 mm | - | 624 W/m² | - |
* Rain latest hour (hover to see other rain measurements)
** Current wind speed in m/s (hover to see current wind gust speed)